createdAt,value
2022-11-29T00:00:49.599Z,5.540161
2022-11-29T00:01:58.383Z,5.540161
2022-11-29T00:03:08.070Z,5.570374
2022-11-29T00:04:17.835Z,5.560303
2022-11-29T00:05:27.552Z,5.590515
2022-11-29T00:06:36.220Z,5.560303
2022-11-29T00:07:45.956Z,5.570374
2022-11-29T00:08:53.601Z,5.570374
2022-11-29T00:10:03.329Z,5.570374
2022-11-29T00:11:12.022Z,5.570374
2022-11-29T00:12:20.698Z,5.570374
2022-11-29T00:13:30.360Z,5.570374
2022-11-29T00:14:39.055Z,5.590515
2022-11-29T00:15:47.748Z,5.570374
2022-11-29T00:16:58.446Z,5.560303
2022-11-29T00:18:06.229Z,5.590515
2022-11-29T00:19:15.942Z,5.610657
2022-11-29T00:20:25.670Z,5.610657
2022-11-29T00:21:34.373Z,5.610657
2022-11-29T00:22:44.162Z,5.590515
2022-11-29T00:23:52.834Z,5.610657
2022-11-29T00:25:02.503Z,5.590515
2022-11-29T00:26:12.179Z,5.610657
2022-11-29T00:27:19.870Z,5.590515
2022-11-29T00:28:29.535Z,5.610657
2022-11-29T00:29:39.234Z,5.590515
2022-11-29T00:30:46.940Z,5.590515
2022-11-29T00:31:56.616Z,5.590515
2022-11-29T00:33:05.301Z,5.590515
2022-11-29T00:34:15.040Z,5.610657
2022-11-29T00:35:23.767Z,5.640869
2022-11-29T00:36:32.430Z,5.610657
2022-11-29T00:37:42.092Z,5.640869
2022-11-29T00:38:50.779Z,5.640869
2022-11-29T00:39:59.526Z,5.640869
2022-11-29T00:41:09.223Z,5.640869
2022-11-29T00:42:17.931Z,5.640869
2022-11-29T00:43:27.697Z,5.65094
2022-11-29T00:44:37.403Z,5.65094
2022-11-29T00:45:46.142Z,5.640869
2022-11-29T00:46:55.820Z,5.65094
2022-11-29T00:48:04.473Z,5.65094
2022-11-29T00:49:13.169Z,5.65094
2022-11-29T00:50:23.972Z,5.640869
2022-11-29T00:51:32.679Z,5.65094
2022-11-29T00:52:41.353Z,5.65094
2022-11-29T00:53:51.022Z,5.65094
2022-11-29T00:54:58.699Z,5.65094
2022-11-29T00:56:08.400Z,5.661011
2022-11-29T00:57:17.075Z,5.691223
2022-11-29T00:58:26.770Z,5.681152
2022-11-29T00:59:36.457Z,5.691223
2022-11-29T01:00:45.150Z,5.711365
2022-11-29T01:01:54.864Z,5.721436
2022-11-29T01:03:03.547Z,5.751648
2022-11-29T01:04:13.245Z,5.731506
2022-11-29T01:05:22.908Z,5.751648
2022-11-29T01:06:32.611Z,5.751648
2022-11-29T01:07:42.401Z,5.761719
2022-11-29T01:08:52.107Z,5.761719
2022-11-29T01:09:59.805Z,5.751648
2022-11-29T01:11:09.491Z,5.751648
2022-11-29T01:12:17.200Z,5.761719
2022-11-29T01:13:26.001Z,5.761719
2022-11-29T01:14:35.705Z,5.751648
2022-11-29T01:15:43.398Z,5.751648
2022-11-29T01:16:52.277Z,5.761719
2022-11-29T01:18:01.847Z,5.761719
2022-11-29T01:19:09.579Z,5.761719
2022-11-29T01:20:19.292Z,5.751648
2022-11-29T01:21:26.973Z,5.761719
2022-11-29T01:22:35.640Z,5.761719
2022-11-29T01:23:45.350Z,5.791931
2022-11-29T01:24:55.030Z,5.822144
2022-11-29T01:26:04.705Z,5.802002
2022-11-29T01:27:13.437Z,5.791931
2022-11-29T01:28:21.147Z,5.791931
2022-11-29T01:29:30.865Z,5.791931
2022-11-29T01:30:39.640Z,5.791931
2022-11-29T01:31:49.277Z,5.751648
2022-11-29T01:32:58.981Z,5.761719
2022-11-29T01:34:06.659Z,5.761719
2022-11-29T01:35:16.341Z,5.751648
2022-11-29T01:36:26.082Z,5.751648
2022-11-29T01:37:35.765Z,5.751648
2022-11-29T01:38:45.466Z,5.751648
2022-11-29T01:39:53.147Z,5.761719
2022-11-29T01:41:01.822Z,5.751648
2022-11-29T01:42:11.518Z,5.761719
2022-11-29T01:43:20.188Z,5.751648
2022-11-29T01:44:29.856Z,5.791931
2022-11-29T01:45:38.643Z,5.761719
2022-11-29T01:46:48.259Z,5.751648
2022-11-29T01:47:58.012Z,5.761719
2022-11-29T01:49:05.686Z,5.751648
2022-11-29T01:50:14.353Z,5.731506
2022-11-29T01:51:24.030Z,5.731506
2022-11-29T01:52:33.687Z,5.721436
2022-11-29T01:53:43.381Z,5.721436
2022-11-29T01:54:52.062Z,5.711365
2022-11-29T01:55:59.780Z,5.711365
2022-11-29T01:57:09.388Z,5.711365
2022-11-29T01:58:17.042Z,5.691223
2022-11-29T01:59:26.733Z,5.691223
2022-11-29T02:00:36.410Z,5.711365
2022-11-29T02:01:45.109Z,5.711365
2022-11-29T02:02:54.887Z,5.711365
2022-11-29T02:04:04.522Z,5.691223
2022-11-29T02:05:13.228Z,5.691223
2022-11-29T02:06:21.888Z,5.691223
2022-11-29T02:07:31.624Z,5.691223
2022-11-29T02:08:40.248Z,5.681152
2022-11-29T02:09:49.917Z,5.691223
2022-11-29T02:10:58.617Z,5.691223
2022-11-29T02:12:08.303Z,5.691223
2022-11-29T02:13:16.944Z,5.711365
2022-11-29T02:14:25.620Z,5.691223
2022-11-29T02:15:36.381Z,5.681152
2022-11-29T02:16:44.160Z,5.681152
2022-11-29T02:17:53.822Z,5.681152
2022-11-29T02:19:03.503Z,5.661011
2022-11-29T02:20:11.240Z,5.681152
2022-11-29T02:21:20.907Z,5.661011
2022-11-29T02:22:29.605Z,5.661011
2022-11-29T02:23:38.273Z,5.661011
2022-11-29T02:24:48.027Z,5.65094
2022-11-29T02:25:55.669Z,5.661011
2022-11-29T02:27:04.345Z,5.640869
2022-11-29T02:28:14.053Z,5.640869
2022-11-29T02:29:22.748Z,5.620728
2022-11-29T02:30:32.479Z,5.620728
2022-11-29T02:31:41.159Z,5.610657
2022-11-29T02:32:48.848Z,5.610657
2022-11-29T02:33:57.580Z,5.610657
2022-11-29T02:35:05.267Z,5.590515
2022-11-29T02:36:13.972Z,5.610657
2022-11-29T02:37:23.687Z,5.610657
2022-11-29T02:38:31.388Z,5.590515
2022-11-29T02:39:41.088Z,5.610657
2022-11-29T02:40:49.824Z,5.590515
2022-11-29T02:41:58.514Z,5.590515
2022-11-29T02:43:08.225Z,5.590515
2022-11-29T02:44:16.957Z,5.620728
2022-11-29T02:45:25.679Z,5.610657
2022-11-29T02:46:35.424Z,5.590515
2022-11-29T02:47:45.072Z,5.610657
2022-11-29T02:48:54.753Z,5.590515
2022-11-29T02:50:03.442Z,5.620728
2022-11-29T02:51:13.245Z,5.620728
2022-11-29T02:52:22.960Z,5.640869
2022-11-29T02:53:31.700Z,5.65094
2022-11-29T02:54:40.380Z,5.640869
2022-11-29T02:55:48.104Z,5.640869
2022-11-29T02:56:56.806Z,5.640869
2022-11-29T02:58:06.646Z,5.640869
2022-11-29T02:59:15.384Z,5.620728
2022-11-29T03:00:25.102Z,5.640869
2022-11-29T03:01:34.828Z,5.640869
2022-11-29T03:02:42.524Z,5.65094
2022-11-29T03:03:52.157Z,5.640869
2022-11-29T03:05:00.863Z,5.640869
2022-11-29T03:06:10.596Z,5.620728
2022-11-29T03:07:20.446Z,5.640869
2022-11-29T03:08:29.145Z,5.640869
2022-11-29T03:09:38.789Z,5.620728
2022-11-29T03:10:46.492Z,5.620728
2022-11-29T03:11:54.163Z,5.620728
2022-11-29T03:13:03.851Z,5.620728
2022-11-29T03:14:11.608Z,5.640869
2022-11-29T03:15:20.326Z,5.620728
2022-11-29T03:16:30.059Z,5.640869
2022-11-29T03:17:40.757Z,5.640869
2022-11-29T03:18:50.456Z,5.640869
2022-11-29T03:20:00.233Z,5.640869
2022-11-29T03:21:07.938Z,5.640869
2022-11-29T03:22:17.639Z,5.65094
2022-11-29T03:23:25.332Z,5.65094
2022-11-29T03:24:34.053Z,5.65094
2022-11-29T03:25:43.812Z,5.65094
2022-11-29T03:26:51.498Z,5.65094
2022-11-29T03:28:01.233Z,5.681152
2022-11-29T03:29:09.919Z,5.661011
2022-11-29T03:30:18.595Z,5.681152
2022-11-29T03:31:28.352Z,5.661011
2022-11-29T03:32:36.014Z,5.681152
2022-11-29T03:33:44.673Z,5.681152
2022-11-29T03:34:57.308Z,5.691223
2022-11-29T03:36:04.070Z,5.681152
2022-11-29T03:37:13.792Z,5.681152
2022-11-29T03:38:22.534Z,5.691223
2022-11-29T03:39:32.215Z,5.681152
2022-11-29T03:40:41.913Z,5.681152
2022-11-29T03:41:50.586Z,5.681152
2022-11-29T03:43:00.315Z,5.661011
2022-11-29T03:44:09.994Z,5.661011
2022-11-29T03:45:17.672Z,5.661011
2022-11-29T03:46:27.395Z,5.661011
2022-11-29T03:47:37.041Z,5.661011
2022-11-29T03:48:45.785Z,5.661011
2022-11-29T03:49:55.500Z,5.681152
2022-11-29T03:51:04.208Z,5.691223
2022-11-29T03:52:13.892Z,5.661011
2022-11-29T03:53:23.661Z,5.681152
2022-11-29T03:54:31.511Z,5.681152
2022-11-29T03:55:41.230Z,5.681152
2022-11-29T03:56:49.977Z,5.661011
2022-11-29T03:57:58.681Z,5.681152
2022-11-29T03:59:08.383Z,5.681152
2022-11-29T04:00:17.075Z,5.661011
2022-11-29T04:01:25.787Z,5.661011
2022-11-29T04:02:35.529Z,5.661011
2022-11-29T04:03:44.197Z,5.65094
2022-11-29T04:04:53.950Z,5.661011
2022-11-29T04:06:03.667Z,5.661011
2022-11-29T04:07:11.340Z,5.661011
2022-11-29T04:08:21.089Z,5.65094
2022-11-29T04:09:30.783Z,5.661011
2022-11-29T04:10:39.501Z,5.65094
2022-11-29T04:11:49.221Z,5.65094
2022-11-29T04:12:57.940Z,5.65094
2022-11-29T04:14:07.646Z,5.640869
2022-11-29T04:15:16.325Z,5.640869
2022-11-29T04:16:24.009Z,5.610657
2022-11-29T04:17:33.716Z,5.610657
2022-11-29T04:18:42.412Z,5.620728
2022-11-29T04:19:52.085Z,5.590515
2022-11-29T04:21:01.855Z,5.610657
2022-11-29T04:22:10.495Z,5.610657
2022-11-29T04:23:20.333Z,5.590515
2022-11-29T04:24:30.046Z,5.570374
2022-11-29T04:25:39.839Z,5.570374
2022-11-29T04:26:49.540Z,5.560303
2022-11-29T04:27:59.228Z,5.560303
2022-11-29T04:29:09.991Z,5.540161
2022-11-29T04:30:19.858Z,5.560303
2022-11-29T04:31:27.587Z,5.560303
2022-11-29T04:32:37.230Z,5.53009
2022-11-29T04:33:46.948Z,5.499878
2022-11-29T04:34:54.681Z,5.509949
2022-11-29T04:36:04.392Z,5.499878
2022-11-29T04:37:14.039Z,5.509949
2022-11-29T04:38:22.738Z,5.53009
2022-11-29T04:39:32.439Z,5.53009
2022-11-29T04:40:41.159Z,5.509949
2022-11-29T04:41:50.839Z,5.509949
2022-11-29T04:43:00.508Z,5.53009
2022-11-29T04:44:10.198Z,5.509949
2022-11-29T04:45:19.877Z,5.499878
2022-11-29T04:46:27.739Z,5.499878
2022-11-29T04:47:36.350Z,5.479736
2022-11-29T04:48:46.067Z,5.479736
2022-11-29T04:49:54.756Z,5.469666
2022-11-29T04:51:04.488Z,5.459595
2022-11-29T04:52:13.408Z,5.469666
2022-11-29T04:53:23.088Z,5.439453
2022-11-29T04:54:31.809Z,5.429382
2022-11-29T04:55:40.490Z,5.409241
2022-11-29T04:56:49.199Z,5.389099
2022-11-29T04:57:56.906Z,5.379028
2022-11-29T04:59:05.641Z,5.379028
2022-11-29T05:00:15.351Z,5.358887
2022-11-29T05:01:23.067Z,5.358887
2022-11-29T05:02:32.821Z,5.358887
2022-11-29T05:03:41.551Z,5.348816
2022-11-29T05:04:52.227Z,5.358887
2022-11-29T05:06:01.965Z,5.358887
2022-11-29T05:07:10.652Z,5.328674
2022-11-29T05:08:19.350Z,5.328674
2022-11-29T05:09:29.106Z,5.318604
2022-11-29T05:10:36.847Z,5.318604
2022-11-29T05:11:46.541Z,5.318604
2022-11-29T05:12:54.249Z,5.298462
2022-11-29T05:14:02.917Z,5.298462
2022-11-29T05:15:12.682Z,5.288391
2022-11-29T05:16:21.639Z,5.288391
2022-11-29T05:17:30.277Z,5.288391
2022-11-29T05:18:39.947Z,5.27832
2022-11-29T05:19:48.665Z,5.27832
2022-11-29T05:20:58.365Z,5.288391
2022-11-29T05:22:08.266Z,5.318604
2022-11-29T05:23:15.981Z,5.298462
2022-11-29T05:24:25.739Z,5.298462
2022-11-29T05:25:35.390Z,5.318604
2022-11-29T05:26:45.252Z,5.298462
2022-11-29T05:27:54.912Z,5.328674
2022-11-29T05:29:04.629Z,5.318604
2022-11-29T05:30:14.303Z,5.328674
2022-11-29T05:31:23.176Z,5.328674
2022-11-29T05:32:32.786Z,5.328674
2022-11-29T05:33:42.481Z,5.318604
2022-11-29T05:34:50.649Z,5.328674
2022-11-29T05:35:58.878Z,5.358887
2022-11-29T05:37:08.622Z,5.409241
2022-11-29T05:38:16.357Z,5.439453
2022-11-29T05:39:26.098Z,5.439453
2022-11-29T05:40:34.794Z,5.409241
2022-11-29T05:41:43.425Z,5.379028
2022-11-29T05:42:52.093Z,5.358887
2022-11-29T05:44:00.801Z,5.328674
2022-11-29T05:45:10.508Z,5.328674
2022-11-29T05:46:19.232Z,5.298462
2022-11-29T05:47:31.167Z,5.298462
2022-11-29T05:48:36.777Z,5.298462
2022-11-29T05:49:45.383Z,5.298462
2022-11-29T05:50:54.071Z,5.27832
2022-11-29T05:52:03.767Z,5.298462
2022-11-29T05:53:13.448Z,5.288391
2022-11-29T05:54:22.112Z,5.27832
2022-11-29T05:55:31.809Z,5.288391
2022-11-29T05:56:40.593Z,5.258179
2022-11-29T05:57:50.268Z,5.248108
2022-11-29T05:58:59.147Z,5.227966
2022-11-29T06:00:06.814Z,5.248108
2022-11-29T06:01:16.534Z,5.248108
2022-11-29T06:02:25.246Z,5.248108
2022-11-29T06:03:33.850Z,5.197754
2022-11-29T06:04:43.798Z,5.197754
2022-11-29T06:05:52.255Z,5.167542
2022-11-29T06:07:01.970Z,5.177612
2022-11-29T06:08:10.649Z,5.177612
2022-11-29T06:09:18.360Z,5.177612
2022-11-29T06:10:28.037Z,5.167542
2022-11-29T06:11:37.766Z,5.167542
2022-11-29T06:12:46.557Z,5.167542
2022-11-29T06:13:56.236Z,5.207825
2022-11-29T06:15:04.888Z,5.177612
2022-11-29T06:16:14.600Z,5.207825
2022-11-29T06:17:22.282Z,5.197754
2022-11-29T06:18:30.034Z,5.177612
2022-11-29T06:19:39.773Z,5.177612
2022-11-29T06:20:48.452Z,5.177612
2022-11-29T06:21:57.164Z,5.167542
2022-11-29T06:23:06.868Z,5.177612
2022-11-29T06:24:15.540Z,5.167542
2022-11-29T06:25:25.196Z,5.1474
2022-11-29T06:26:33.889Z,5.167542
2022-11-29T06:27:43.549Z,5.1474
2022-11-29T06:28:53.249Z,5.1474
2022-11-29T06:30:03.035Z,5.1474
2022-11-29T06:31:12.803Z,5.137329
2022-11-29T06:32:21.393Z,5.1474
2022-11-29T06:33:29.152Z,5.137329
2022-11-29T06:34:37.893Z,5.1474
2022-11-29T06:35:46.619Z,5.167542
2022-11-29T06:36:56.304Z,5.137329
2022-11-29T06:38:05.975Z,5.117188
2022-11-29T06:39:13.658Z,5.117188
2022-11-29T06:40:22.347Z,5.137329
2022-11-29T06:41:33.029Z,5.1474
2022-11-29T06:42:40.712Z,5.137329
2022-11-29T06:43:50.418Z,5.137329
2022-11-29T06:44:59.132Z,5.117188
2022-11-29T06:46:07.816Z,5.137329
2022-11-29T06:47:17.513Z,5.137329
2022-11-29T06:48:26.216Z,5.167542
2022-11-29T06:49:35.896Z,5.1474
2022-11-29T06:50:45.587Z,5.167542
2022-11-29T06:51:55.272Z,5.167542
2022-11-29T06:53:05.025Z,5.167542
2022-11-29T06:54:13.715Z,5.167542
2022-11-29T06:55:23.424Z,5.177612
2022-11-29T06:56:32.092Z,5.177612
2022-11-29T06:57:41.731Z,5.167542
2022-11-29T06:58:51.436Z,5.177612
2022-11-29T06:59:59.207Z,5.177612
2022-11-29T07:01:07.963Z,5.177612
2022-11-29T07:02:17.618Z,5.177612
2022-11-29T07:03:26.328Z,5.207825
2022-11-29T07:04:36.724Z,5.197754
2022-11-29T07:05:46.804Z,5.207825
2022-11-29T07:06:54.460Z,5.227966
2022-11-29T07:08:04.153Z,5.197754
2022-11-29T07:09:12.852Z,5.197754
2022-11-29T07:10:21.552Z,5.207825
2022-11-29T07:11:31.218Z,5.207825
2022-11-29T07:12:40.900Z,5.227966
2022-11-29T07:13:51.610Z,5.227966
2022-11-29T07:15:00.314Z,5.227966
2022-11-29T07:16:10.226Z,5.248108
2022-11-29T07:17:19.818Z,5.227966
2022-11-29T07:18:28.522Z,5.207825
2022-11-29T07:19:37.222Z,5.207825
2022-11-29T07:20:46.943Z,5.248108
2022-11-29T07:21:54.647Z,5.258179
2022-11-29T07:23:04.292Z,5.258179
2022-11-29T07:24:13.003Z,5.288391
2022-11-29T07:25:22.738Z,5.298462
2022-11-29T07:26:32.414Z,5.288391
2022-11-29T07:27:40.156Z,5.298462
2022-11-29T07:28:49.855Z,5.288391
2022-11-29T07:29:59.613Z,5.27832
2022-11-29T07:31:09.345Z,5.27832
2022-11-29T07:32:18.996Z,5.288391
2022-11-29T07:33:28.826Z,5.298462
2022-11-29T07:34:38.502Z,5.298462
2022-11-29T07:35:48.190Z,5.288391
2022-11-29T07:36:55.882Z,5.288391
2022-11-29T07:38:05.618Z,5.288391
2022-11-29T07:39:15.288Z,5.318604
2022-11-29T07:40:22.972Z,5.298462
2022-11-29T07:41:33.643Z,5.298462
2022-11-29T07:42:43.304Z,5.318604
2022-11-29T07:43:53.077Z,5.318604
2022-11-29T07:45:02.773Z,5.288391
2022-11-29T07:46:11.462Z,5.318604
2022-11-29T07:47:20.169Z,5.298462
2022-11-29T07:48:31.005Z,5.328674
2022-11-29T07:49:39.671Z,5.328674
2022-11-29T07:50:49.434Z,5.318604
2022-11-29T07:51:58.185Z,5.318604
2022-11-29T07:53:05.845Z,5.318604
2022-11-29T07:54:15.577Z,5.318604
2022-11-29T07:55:23.266Z,5.328674
2022-11-29T07:56:33.095Z,5.328674
2022-11-29T07:57:42.764Z,5.348816
2022-11-29T07:58:50.538Z,5.328674
2022-11-29T08:00:00.112Z,5.328674
2022-11-29T08:01:08.825Z,5.328674
2022-11-29T08:02:16.546Z,5.328674
2022-11-29T08:03:26.375Z,5.348816
2022-11-29T08:04:35.086Z,5.379028
2022-11-29T08:05:44.734Z,5.358887
2022-11-29T08:06:54.466Z,5.358887
2022-11-29T08:08:02.189Z,5.358887
2022-11-29T08:09:11.829Z,5.389099
2022-11-29T08:10:20.670Z,5.389099
2022-11-29T08:11:29.343Z,5.439453
2022-11-29T08:12:39.004Z,5.439453
2022-11-29T08:13:46.683Z,5.459595
2022-11-29T08:14:55.479Z,5.469666
2022-11-29T08:16:05.145Z,5.469666
2022-11-29T08:17:13.751Z,5.469666
2022-11-29T08:18:23.431Z,5.469666
2022-11-29T08:19:32.107Z,5.479736
2022-11-29T08:20:40.813Z,5.509949
2022-11-29T08:21:49.483Z,5.499878
2022-11-29T08:22:57.217Z,5.53009
2022-11-29T08:24:06.876Z,5.53009
2022-11-29T08:25:16.611Z,5.53009
2022-11-29T08:26:28.201Z,5.53009
2022-11-29T08:27:33.984Z,5.499878
2022-11-29T08:28:43.663Z,5.459595
2022-11-29T08:29:53.337Z,5.439453
2022-11-29T08:31:03.038Z,5.459595
2022-11-29T08:32:11.718Z,5.469666
2022-11-29T08:33:20.386Z,5.479736
2022-11-29T08:34:30.057Z,5.469666
2022-11-29T08:35:37.732Z,5.459595
2022-11-29T08:36:47.437Z,5.459595
2022-11-29T08:37:57.105Z,5.499878
2022-11-29T08:39:09.088Z,5.53009
2022-11-29T08:40:15.489Z,5.540161
2022-11-29T08:41:23.277Z,5.570374
2022-11-29T08:42:31.964Z,5.590515
2022-11-29T08:43:41.689Z,5.590515
2022-11-29T08:44:50.370Z,5.590515
2022-11-29T08:46:00.076Z,5.570374
2022-11-29T08:47:08.681Z,5.590515
2022-11-29T08:48:16.367Z,5.570374
2022-11-29T08:49:26.027Z,5.560303
2022-11-29T08:50:35.686Z,5.560303
2022-11-29T08:51:45.371Z,5.540161
2022-11-29T08:52:55.061Z,5.560303
2022-11-29T08:54:03.704Z,5.570374
2022-11-29T08:55:13.449Z,5.590515
2022-11-29T08:57:04.824Z,5.560303
2022-11-29T08:57:39.598Z,5.560303
2022-11-29T08:58:42.375Z,5.540161
2022-11-29T08:59:50.064Z,5.610657
2022-11-29T09:00:59.783Z,5.640869
2022-11-29T09:02:09.549Z,5.640869
2022-11-29T09:03:18.161Z,5.610657
2022-11-29T09:04:27.838Z,5.620728
2022-11-29T09:05:36.513Z,5.640869
2022-11-29T09:06:46.199Z,5.681152
2022-11-29T09:07:53.928Z,5.711365
2022-11-29T09:09:01.627Z,5.721436
2022-11-29T09:10:11.317Z,5.721436
2022-11-29T09:11:20.004Z,5.751648
2022-11-29T09:12:28.746Z,5.711365
2022-11-29T09:13:38.452Z,5.731506
2022-11-29T09:14:47.218Z,5.751648
2022-11-29T09:15:56.780Z,5.721436
2022-11-29T09:17:06.505Z,5.721436
2022-11-29T09:18:16.325Z,5.711365
2022-11-29T09:19:26.380Z,5.691223
2022-11-29T09:20:35.062Z,5.731506
2022-11-29T09:21:43.775Z,5.721436
2022-11-29T09:22:53.484Z,5.721436
2022-11-29T09:24:02.170Z,5.721436
2022-11-29T09:25:11.922Z,5.731506
2022-11-29T09:26:21.580Z,5.751648
2022-11-29T09:27:29.275Z,5.731506
2022-11-29T09:28:38.970Z,5.721436
2022-11-29T09:29:47.640Z,5.731506
2022-11-29T09:30:57.352Z,5.751648
2022-11-29T09:32:07.079Z,5.802002
2022-11-29T09:33:16.783Z,5.832214
2022-11-29T09:34:26.485Z,5.872498
2022-11-29T09:35:35.176Z,5.892639
2022-11-29T09:36:43.895Z,5.872498
2022-11-29T09:37:53.581Z,5.872498
2022-11-29T09:39:01.271Z,5.90271
2022-11-29T09:40:09.991Z,5.862427
2022-11-29T09:41:19.709Z,5.862427
2022-11-29T09:42:27.376Z,5.862427
2022-11-29T09:43:37.066Z,5.892639
2022-11-29T09:44:47.147Z,5.932922
2022-11-29T09:45:55.581Z,5.912781
2022-11-29T09:47:05.187Z,5.90271
2022-11-29T09:48:13.892Z,5.932922
2022-11-29T09:49:23.596Z,5.932922
2022-11-29T09:50:33.259Z,5.983276
2022-11-29T09:51:44.296Z,6.02356
2022-11-29T09:52:51.615Z,6.053772
2022-11-29T09:54:00.292Z,6.114197
2022-11-29T09:55:07.970Z,6.114197
2022-11-29T09:56:17.665Z,6.083984
2022-11-29T09:57:27.427Z,6.02356
2022-11-29T09:58:36.144Z,6.02356
2022-11-29T09:59:45.920Z,6.02356
2022-11-29T10:00:54.737Z,6.053772
2022-11-29T10:02:04.343Z,6.073914
2022-11-29T10:03:14.001Z,6.053772
2022-11-29T10:04:21.687Z,6.083984
2022-11-29T10:05:31.404Z,6.083984
2022-11-29T10:06:39.146Z,6.083984
2022-11-29T10:07:47.897Z,6.083984
2022-11-29T10:08:57.569Z,6.114197
2022-11-29T10:10:07.260Z,6.083984
2022-11-29T10:11:16.928Z,6.073914
2022-11-29T10:12:26.643Z,6.094055
2022-11-29T10:13:35.439Z,6.073914
2022-11-29T10:14:45.475Z,6.083984
2022-11-29T10:15:53.811Z,6.114197
2022-11-29T10:17:03.583Z,6.073914
2022-11-29T10:18:13.256Z,6.094055
2022-11-29T10:19:21.979Z,6.094055
2022-11-29T10:20:34.279Z,6.114197
2022-11-29T10:21:42.372Z,6.144409
2022-11-29T10:22:50.091Z,6.144409
2022-11-29T10:23:59.790Z,6.174622
2022-11-29T10:25:07.469Z,6.235046
2022-11-29T10:26:17.183Z,6.255188
2022-11-29T10:27:27.897Z,6.194763
2022-11-29T10:28:36.594Z,6.094055
2022-11-29T10:29:46.336Z,6.094055
2022-11-29T10:30:56.041Z,6.114197
2022-11-29T10:32:09.966Z,6.094055
2022-11-29T10:33:14.485Z,6.124268
2022-11-29T10:34:24.181Z,6.124268
2022-11-29T10:35:32.867Z,6.114197
2022-11-29T10:36:42.547Z,6.124268
2022-11-29T10:38:08.063Z,6.144409
2022-11-29T10:39:01.874Z,6.164551
2022-11-29T10:40:11.526Z,6.144409
2022-11-29T10:41:20.241Z,6.144409
2022-11-29T10:42:29.998Z,6.144409
2022-11-29T10:43:37.719Z,6.164551
2022-11-29T10:44:46.634Z,6.164551
2022-11-29T10:45:57.145Z,6.114197
2022-11-29T10:47:09.432Z,6.114197
2022-11-29T10:48:14.404Z,6.114197
2022-11-29T10:49:22.080Z,6.144409
2022-11-29T10:50:31.792Z,6.194763
2022-11-29T10:51:40.485Z,6.224976
2022-11-29T10:52:48.151Z,6.194763
2022-11-29T10:53:58.805Z,6.194763
2022-11-29T10:55:07.600Z,6.204834
2022-11-29T10:56:17.274Z,6.224976
2022-11-29T10:57:26.928Z,6.255188
2022-11-29T10:58:36.626Z,6.265259
2022-11-29T10:59:46.289Z,6.295471
2022-11-29T11:00:56.049Z,6.325684
2022-11-29T11:02:04.729Z,6.345825
2022-11-29T11:03:14.521Z,6.345825
2022-11-29T11:04:23.189Z,6.27533
2022-11-29T11:05:31.844Z,6.255188
2022-11-29T11:06:41.580Z,6.265259
2022-11-29T11:07:49.384Z,6.345825
2022-11-29T11:08:59.155Z,6.40625
2022-11-29T11:10:08.716Z,6.416321
2022-11-29T11:11:17.401Z,6.376038
2022-11-29T11:12:27.232Z,6.325684
2022-11-29T11:13:36.915Z,6.376038
2022-11-29T11:14:46.886Z,6.416321
2022-11-29T11:15:56.299Z,6.456604
2022-11-29T11:17:04.040Z,6.40625
2022-11-29T11:18:13.720Z,6.456604
2022-11-29T11:19:23.377Z,6.506958
2022-11-29T11:20:32.030Z,6.476746
2022-11-29T11:21:41.689Z,6.476746
2022-11-29T11:22:50.436Z,6.456604
2022-11-29T11:23:59.108Z,6.446533
2022-11-29T11:25:08.822Z,6.486816
2022-11-29T11:26:18.620Z,6.436462
2022-11-29T11:27:28.368Z,6.40625
2022-11-29T11:28:37.152Z,6.416321
2022-11-29T11:29:44.865Z,6.476746
2022-11-29T11:30:54.588Z,6.506958
2022-11-29T11:32:04.223Z,6.557312
2022-11-29T11:33:12.937Z,6.557312
2022-11-29T11:34:21.686Z,6.557312
2022-11-29T11:35:29.306Z,6.567383
2022-11-29T11:36:38.971Z,6.53717
2022-11-29T11:37:48.796Z,6.517029
2022-11-29T11:38:57.475Z,6.567383
2022-11-29T11:40:07.182Z,6.567383
2022-11-29T11:41:14.831Z,6.567383
2022-11-29T11:42:24.606Z,6.557312
2022-11-29T11:43:34.273Z,6.517029
2022-11-29T11:44:47.152Z,6.557312
2022-11-29T11:45:52.700Z,6.557312
2022-11-29T11:47:01.457Z,6.53717
2022-11-29T11:48:10.172Z,6.557312
2022-11-29T11:49:19.825Z,6.587524
2022-11-29T11:50:28.598Z,6.557312
2022-11-29T11:51:38.302Z,6.506958
2022-11-29T11:52:50.530Z,6.517029
2022-11-29T11:53:55.669Z,6.557312
2022-11-29T11:55:05.353Z,6.587524
2022-11-29T11:56:14.013Z,6.617737
2022-11-29T11:57:22.699Z,6.637878
2022-11-29T11:58:32.405Z,6.688232
2022-11-29T11:59:42.100Z,6.698303
2022-11-29T12:01:07.078Z,6.668091
2022-11-29T12:02:02.695Z,6.718445
2022-11-29T12:03:12.395Z,6.77887
2022-11-29T12:04:22.101Z,6.849365
2022-11-29T12:05:30.796Z,6.919861
2022-11-29T12:06:38.436Z,6.950073
2022-11-29T12:08:13.524Z,6.950073
2022-11-29T12:08:58.766Z,6.929932
2022-11-29T12:10:07.490Z,6.950073
2022-11-29T12:11:17.149Z,6.990356
2022-11-29T12:12:24.863Z,7.03064
2022-11-29T12:13:34.580Z,6.879578
2022-11-29T12:14:43.520Z,6.718445
2022-11-29T12:15:51.001Z,6.748657
2022-11-29T12:17:00.659Z,6.819153
2022-11-29T12:18:08.304Z,6.879578
2022-11-29T12:19:17.005Z,6.970215
2022-11-29T12:20:26.719Z,7.020569
2022-11-29T12:21:36.416Z,6.950073
2022-11-29T12:22:48.404Z,6.990356
2022-11-29T12:23:55.833Z,7.03064
2022-11-29T12:25:03.472Z,7.131348
2022-11-29T12:26:16.203Z,7.181702
2022-11-29T12:27:23.880Z,7.28241
2022-11-29T12:28:33.574Z,7.28241
2022-11-29T12:29:43.236Z,7.242126
2022-11-29T12:30:52.921Z,7.201843
2022-11-29T12:32:03.580Z,7.201843
2022-11-29T12:33:13.303Z,7.201843
2022-11-29T12:34:22.528Z,7.181702
2022-11-29T12:35:29.754Z,7.141418
2022-11-29T12:36:38.406Z,7.050781
2022-11-29T12:37:46.071Z,6.819153
2022-11-29T12:38:55.711Z,6.819153
2022-11-29T12:40:05.414Z,6.768799
2022-11-29T12:41:14.043Z,6.738586
2022-11-29T12:42:23.696Z,6.718445
2022-11-29T12:43:33.372Z,6.668091
2022-11-29T12:44:43.252Z,6.627808
2022-11-29T12:45:51.769Z,6.668091
2022-11-29T12:47:28.082Z,6.718445
2022-11-29T12:48:11.055Z,6.698303
2022-11-29T12:49:18.695Z,6.668091
2022-11-29T12:50:27.531Z,6.597595
2022-11-29T12:51:37.198Z,6.567383
2022-11-29T12:52:44.857Z,6.587524
2022-11-29T12:53:54.629Z,6.627808
2022-11-29T12:55:04.290Z,6.627808
2022-11-29T12:56:12.967Z,6.637878
2022-11-29T12:57:22.639Z,6.65802
2022-11-29T12:58:31.310Z,6.637878
2022-11-29T12:59:41.952Z,6.688232
2022-11-29T13:00:51.627Z,6.698303
2022-11-29T13:02:01.324Z,6.768799
2022-11-29T13:03:09.961Z,6.809082
2022-11-29T13:04:18.589Z,6.869507
2022-11-29T13:05:26.235Z,6.919861
2022-11-29T13:06:35.929Z,6.960144
2022-11-29T13:07:43.786Z,7.000427
2022-11-29T13:08:53.378Z,7.020569
2022-11-29T13:10:03.074Z,7.050781
2022-11-29T13:11:12.684Z,7.101135
2022-11-29T13:12:22.348Z,7.050781
2022-11-29T13:13:31.035Z,7.050781
2022-11-29T13:14:43.300Z,7.050781
2022-11-29T13:15:49.729Z,7.070923
2022-11-29T13:16:58.052Z,7.050781
2022-11-29T13:18:07.699Z,7.020569
2022-11-29T13:19:17.370Z,7.020569
2022-11-29T13:20:25.006Z,7.03064
2022-11-29T13:21:34.692Z,7.020569
2022-11-29T13:22:43.342Z,7.03064
2022-11-29T13:24:09.305Z,7.03064
2022-11-29T13:25:03.644Z,7.020569
2022-11-29T13:26:12.324Z,7.000427
2022-11-29T13:27:21.951Z,7.020569
2022-11-29T13:28:29.643Z,7.020569
2022-11-29T13:29:38.297Z,7.03064
2022-11-29T13:30:48.080Z,7.020569
2022-11-29T13:31:56.614Z,7.020569
2022-11-29T13:33:07.273Z,7.03064
2022-11-29T13:34:16.929Z,7.020569